Hauptseite
METAR-TAF:

METAR-TAF

Flughäfen :

Heeresflugplatz Fritzlar

Fritzlar, Deutschland

Breite: 51-07N, Länge: 009-17E, Höhe: 172 m

Beobachtung

Neuester Wetterbericht von vor 1 Stunde und 6 Minuten, um 00:20 UTC
Wind 2 kt aus Ost
Temperatur 0°C
Luftfeuchtigkeit 93%
Luftdruck 1038 hPa
Sichtweite 10 km oder mehr
Durchbrochene Bewölkung in der Höhe von 4100 ft

METAR: ETHF 050020Z 09002KT 9999 BKN041 M00/M01 Q1038 BLU

Zeit: 02:26 (01:26 UTC)


TAF: fehlend

Wetterbeobachtungen und Prognosen von mehr als 4000 Flughäfen (METAR und TAF Bericht).

Die verfügbaren Stationen werden durch gelbe und rote Markierungen auf der Karte dargestellt.

Führen Sie die Maus auf sie, um den Namen der Station zu sehen.

Darauf klicken, um die Beobachtung von Wetterbeobachtungen und Prognosen zu sehen.

Um die Karte zu ändern : klicken Sie auf den grünen Tasten mit einem schwarzen Kreuz Zum Vergrößern, auf den grünen Button mit einem Gedankenstrich zu verkleinern, oder auf die grünen Pfeile für benachbarte Karten.


METAR-TAF: